sensor_id;sensor_type;location;lat;lon;timestamp;pressure;altitude;pressure_sealevel;temperature;humidity
14204;BME280;7185;51.854;6.622;2023-12-20T00:01:18;101141.34;;;13.77;66.67
14204;BME280;7185;51.854;6.622;2023-12-20T00:03:50;101142.75;;;13.94;66.21
14204;BME280;7185;51.854;6.622;2023-12-20T00:06:23;101157.41;;;13.66;66.69
14204;BME280;7185;51.854;6.622;2023-12-20T00:08:54;101161.88;;;12.73;70.19
14204;BME280;7185;51.854;6.622;2023-12-20T00:11:26;101152.19;;;12.24;71.34
14204;BME280;7185;51.854;6.622;2023-12-20T00:13:58;101165.00;;;12.46;71.38
14204;BME280;7185;51.854;6.622;2023-12-20T00:16:29;101167.03;;;12.26;71.97
14204;BME280;7185;51.854;6.622;2023-12-20T00:19:02;101168.72;;;12.32;71.88
14204;BME280;7185;51.854;6.622;2023-12-20T00:21:35;101160.19;;;12.19;71.83
14204;BME280;7185;51.854;6.622;2023-12-20T00:24:06;101164.34;;;12.31;71.97
14204;BME280;7185;51.854;6.622;2023-12-20T00:26:38;101173.22;;;12.24;71.50
14204;BME280;7185;51.854;6.622;2023-12-20T00:29:10;101162.59;;;12.30;71.92
14204;BME280;7185;51.854;6.622;2023-12-20T00:31:41;101167.22;;;12.17;71.36
14204;BME280;7185;51.854;6.622;2023-12-20T00:34:13;101162.78;;;12.21;71.34
14204;BME280;7185;51.854;6.622;2023-12-20T00:36:46;101165.34;;;11.63;72.62
14204;BME280;7185;51.854;6.622;2023-12-20T00:39:18;101161.91;;;11.58;72.95
14204;BME280;7185;51.854;6.622;2023-12-20T00:41:50;101163.59;;;11.62;72.56
14204;BME280;7185;51.854;6.622;2023-12-20T00:44:21;101157.44;;;11.64;72.58
14204;BME280;7185;51.854;6.622;2023-12-20T00:46:53;101161.72;;;11.72;72.34
14204;BME280;7185;51.854;6.622;2023-12-20T00:49:25;101160.88;;;11.68;72.53
14204;BME280;7185;51.854;6.622;2023-12-20T00:51:58;101170.75;;;11.51;72.50
14204;BME280;7185;51.854;6.622;2023-12-20T00:54:30;101168.94;;;11.56;72.44
14204;BME280;7185;51.854;6.622;2023-12-20T00:57:01;101170.75;;;11.51;72.41
14204;BME280;7185;51.854;6.622;2023-12-20T00:59:33;101170.56;;;11.66;71.94
14204;BME280;7185;51.854;6.622;2023-12-20T01:02:05;101168.03;;;11.58;72.08
14204;BME280;7185;51.854;6.622;2023-12-20T01:04:36;101167.22;;;11.53;71.85
14204;BME280;7185;51.854;6.622;2023-12-20T01:07:09;101168.81;;;11.65;71.84
14204;BME280;7185;51.854;6.622;2023-12-20T01:09:41;101170.94;;;11.35;72.71
14204;BME280;7185;51.854;6.622;2023-12-20T01:12:13;101168.19;;;11.46;72.78
14204;BME280;7185;51.854;6.622;2023-12-20T01:14:44;101166.34;;;11.54;72.78
14204;BME280;7185;51.854;6.622;2023-12-20T01:17:16;101168.81;;;11.65;72.22
14204;BME280;7185;51.854;6.622;2023-12-20T01:19:48;101158.44;;;11.56;72.41
14204;BME280;7185;51.854;6.622;2023-12-20T01:22:21;101163.38;;;11.77;71.78
14204;BME280;7185;51.854;6.622;2023-12-20T01:24:53;101167.09;;;11.64;71.85
14204;BME280;7185;51.854;6.622;2023-12-20T01:27:25;101158.50;;;11.50;72.31
14204;BME280;7185;51.854;6.622;2023-12-20T01:29:56;101162.00;;;11.52;72.28
14204;BME280;7185;51.854;6.622;2023-12-20T01:32:28;101156.69;;;11.55;71.79
14204;BME280;7185;51.854;6.622;2023-12-20T01:35:00;101159.59;;;11.33;72.71
14204;BME280;7185;51.854;6.622;2023-12-20T01:37:33;101161.16;;;11.46;72.02
14204;BME280;7185;51.854;6.622;2023-12-20T01:40:05;101165.78;;;11.29;72.27
14204;BME280;7185;51.854;6.622;2023-12-20T01:42:38;101164.91;;;11.27;72.59
14204;BME280;7185;51.854;6.622;2023-12-20T01:45:10;101173.03;;;11.05;73.39
14204;BME280;7185;51.854;6.622;2023-12-20T01:47:42;101167.59;;;11.24;72.57
14204;BME280;7185;51.854;6.622;2023-12-20T01:50:14;101171.84;;;11.34;71.87
14204;BME280;7185;51.854;6.622;2023-12-20T01:52:47;101168.00;;;10.83;73.83
14204;BME280;7185;51.854;6.622;2023-12-20T01:55:22;101164.44;;;10.94;72.71
14204;BME280;7185;51.854;6.622;2023-12-20T01:57:54;101162.44;;;11.14;72.52
14204;BME280;7185;51.854;6.622;2023-12-20T02:00:26;101172.97;;;11.11;72.00
14204;BME280;7185;51.854;6.622;2023-12-20T02:03:01;101167.69;;;11.14;72.04
14204;BME280;7185;51.854;6.622;2023-12-20T02:05:35;101178.56;;;10.80;72.65
14204;BME280;7185;51.854;6.622;2023-12-20T02:08:08;101160.84;;;11.01;72.45
14204;BME280;7185;51.854;6.622;2023-12-20T02:10:40;101173.25;;;10.87;73.34
14204;BME280;7185;51.854;6.622;2023-12-20T02:13:12;101168.28;;;10.59;73.78
14204;BME280;7185;51.854;6.622;2023-12-20T02:15:44;101169.25;;;10.45;73.92
14204;BME280;7185;51.854;6.622;2023-12-20T02:18:15;101173.47;;;10.62;73.72
14204;BME280;7185;51.854;6.622;2023-12-20T02:20:47;101178.69;;;10.65;73.68
14204;BME280;7185;51.854;6.622;2023-12-20T02:23:20;101183.94;;;10.65;73.59
14204;BME280;7185;51.854;6.622;2023-12-20T02:25:52;101179.44;;;10.79;73.13
14204;BME280;7185;51.854;6.622;2023-12-20T02:28:24;101164.00;;;10.44;74.13
14204;BME280;7185;51.854;6.622;2023-12-20T02:30:55;101168.16;;;10.68;73.44
14204;BME280;7185;51.854;6.622;2023-12-20T02:33:27;101161.91;;;10.83;72.86
14204;BME280;7185;51.854;6.622;2023-12-20T02:35:59;101171.72;;;10.61;73.41
14204;BME280;7185;51.854;6.622;2023-12-20T02:38:32;101179.41;;;10.81;73.02
14204;BME280;7185;51.854;6.622;2023-12-20T02:41:04;101177.69;;;10.78;72.41
14204;BME280;7185;51.854;6.622;2023-12-20T02:43:36;101171.72;;;10.61;73.33
14204;BME280;7185;51.854;6.622;2023-12-20T02:46:07;101155.81;;;10.81;72.70
14204;BME280;7185;51.854;6.622;2023-12-20T02:48:39;101161.34;;;10.48;73.40
14204;BME280;7185;51.854;6.622;2023-12-20T02:51:11;101159.66;;;10.44;74.45
14204;BME280;7185;51.854;6.622;2023-12-20T02:53:45;101150.53;;;10.86;72.97
14204;BME280;7185;51.854;6.622;2023-12-20T02:56:16;101153.22;;;10.79;73.05
14204;BME280;7185;51.854;6.622;2023-12-20T02:58:48;101148.97;;;10.66;73.16
14204;BME280;7185;51.854;6.622;2023-12-20T03:01:20;101152.34;;;10.77;72.51
14204;BME280;7185;51.854;6.622;2023-12-20T03:03:51;101155.84;;;10.79;72.47
14204;BME280;7185;51.854;6.622;2023-12-20T03:06:23;101147.00;;;10.87;72.55
14204;BME280;7185;51.854;6.622;2023-12-20T03:08:57;101146.88;;;10.99;71.61
14204;BME280;7185;51.854;6.622;2023-12-20T03:11:29;101143.63;;;10.75;72.19
14204;BME280;7185;51.854;6.622;2023-12-20T03:14:00;101148.16;;;10.59;72.70
14204;BME280;7185;51.854;6.622;2023-12-20T03:16:32;101141.09;;;10.64;72.69
14204;BME280;7185;51.854;6.622;2023-12-20T03:19:04;101141.19;;;10.57;73.22
14204;BME280;7185;51.854;6.622;2023-12-20T03:21:35;101143.78;;;10.60;72.71
14204;BME280;7185;51.854;6.622;2023-12-20T03:24:08;101146.19;;;10.80;71.98
14204;BME280;7185;51.854;6.622;2023-12-20T03:26:40;101144.41;;;10.85;71.57
14204;BME280;7185;51.854;6.622;2023-12-20T03:29:12;101141.09;;;10.64;72.08
14204;BME280;7185;51.854;6.622;2023-12-20T03:31:44;101138.44;;;10.69;72.37
14204;BME280;7185;51.854;6.622;2023-12-20T03:34:15;101126.53;;;10.31;73.71
14204;BME280;7185;51.854;6.622;2023-12-20T03:36:47;101129.63;;;10.76;71.92
14204;BME280;7185;51.854;6.622;2023-12-20T03:39:20;101138.47;;;10.66;72.15
14204;BME280;7185;51.854;6.622;2023-12-20T03:41:52;101131.41;;;10.74;72.17
14204;BME280;7185;51.854;6.622;2023-12-20T03:44:24;101126.03;;;10.83;71.92
14204;BME280;7185;51.854;6.622;2023-12-20T03:46:55;101121.06;;;10.59;72.85
14204;BME280;7185;51.854;6.622;2023-12-20T03:49:27;101124.44;;;10.70;72.43
14204;BME280;7185;51.854;6.622;2023-12-20T03:51:59;101113.88;;;10.76;72.74
14204;BME280;7185;51.854;6.622;2023-12-20T03:54:32;101120.78;;;10.87;72.06
14204;BME280;7185;51.854;6.622;2023-12-20T03:57:04;101123.25;;;11.02;71.80
14204;BME280;7185;51.854;6.622;2023-12-20T03:59:36;101132.00;;;11.01;71.49
14204;BME280;7185;51.854;6.622;2023-12-20T04:02:07;101122.50;;;10.89;71.54
14204;BME280;7185;51.854;6.622;2023-12-20T04:04:39;101128.66;;;10.83;71.63
14204;BME280;7185;51.854;6.622;2023-12-20T04:07:11;101132.97;;;10.91;71.62
14204;BME280;7185;51.854;6.622;2023-12-20T04:09:44;101135.13;;;10.48;72.71
14204;BME280;7185;51.854;6.622;2023-12-20T04:12:15;101131.34;;;10.77;72.16
14204;BME280;7185;51.854;6.622;2023-12-20T04:14:47;101134.63;;;11.01;71.14
14204;BME280;7185;51.854;6.622;2023-12-20T04:17:19;101137.34;;;10.92;70.82
14204;BME280;7185;51.854;6.622;2023-12-20T04:19:53;101130.53;;;10.74;71.46
14204;BME280;7185;51.854;6.622;2023-12-20T04:22:24;101126.19;;;10.68;71.90
14204;BME280;7185;51.854;6.622;2023-12-20T04:24:57;101131.50;;;10.62;71.83
14204;BME280;7185;51.854;6.622;2023-12-20T04:27:29;101133.03;;;10.84;71.25
14204;BME280;7185;51.854;6.622;2023-12-20T04:30:01;101143.81;;;10.57;71.80
14204;BME280;7185;51.854;6.622;2023-12-20T04:32:33;101135.88;;;10.66;71.73
14204;BME280;7185;51.854;6.622;2023-12-20T04:35:05;101138.28;;;10.84;71.49
14204;BME280;7185;51.854;6.622;2023-12-20T04:37:38;101134.25;;;10.49;72.47
14204;BME280;7185;51.854;6.622;2023-12-20T04:40:11;101121.78;;;10.72;71.90
14204;BME280;7185;51.854;6.622;2023-12-20T04:42:43;101133.34;;;10.52;72.40
14204;BME280;7185;51.854;6.622;2023-12-20T04:45:15;101127.13;;;10.64;71.95
14204;BME280;7185;51.854;6.622;2023-12-20T04:47:47;101127.38;;;10.33;72.91
14204;BME280;7185;51.854;6.622;2023-12-20T04:50:19;101123.50;;;10.77;70.77
14204;BME280;7185;51.854;6.622;2023-12-20T04:52:52;101136.00;;;10.50;71.48
14204;BME280;7185;51.854;6.622;2023-12-20T04:55:25;101137.59;;;10.67;71.03
14204;BME280;7185;51.854;6.622;2023-12-20T04:57:56;101136.13;;;10.36;72.90
14204;BME280;7185;51.854;6.622;2023-12-20T05:00:28;101136.81;;;10.59;72.44
14204;BME280;7185;51.854;6.622;2023-12-20T05:03:00;101133.47;;;10.40;72.87
14204;BME280;7185;51.854;6.622;2023-12-20T05:05:33;101132.28;;;10.72;71.96
14204;BME280;7185;51.854;6.622;2023-12-20T05:08:05;101131.19;;;10.93;70.83
14204;BME280;7185;51.854;6.622;2023-12-20T05:10:38;101134.63;;;11.01;70.64
14204;BME280;7185;51.854;6.622;2023-12-20T05:13:11;101124.72;;;10.42;72.88
14204;BME280;7185;51.854;6.622;2023-12-20T05:15:42;101116.50;;;10.78;71.54
14204;BME280;7185;51.854;6.622;2023-12-20T05:18:14;101109.19;;;11.03;71.25
14204;BME280;7185;51.854;6.622;2023-12-20T05:20:46;101106.09;;;10.70;71.58
14204;BME280;7185;51.854;6.622;2023-12-20T05:23:18;101113.88;;;10.79;71.64
14204;BME280;7185;51.854;6.622;2023-12-20T05:25:52;101115.47;;;10.93;71.00
14204;BME280;7185;51.854;6.622;2023-12-20T05:28:23;101124.03;;;11.07;71.02
14204;BME280;7185;51.854;6.622;2023-12-20T05:30:56;101124.00;;;11.09;70.87
14204;BME280;7185;51.854;6.622;2023-12-20T05:33:27;101122.22;;;11.12;70.53
14204;BME280;7185;51.854;6.622;2023-12-20T05:35:59;101112.81;;;10.96;71.27
14204;BME280;7185;51.854;6.622;2023-12-20T05:38:31;101113.88;;;10.79;71.11
14204;BME280;7185;51.854;6.622;2023-12-20T05:41:04;101119.03;;;10.89;71.78
14204;BME280;7185;51.854;6.622;2023-12-20T05:43:36;101111.88;;;11.00;71.22
14204;BME280;7185;51.854;6.622;2023-12-20T05:46:10;101105.13;;;10.80;71.20
14204;BME280;7185;51.854;6.622;2023-12-20T05:48:41;101102.25;;;11.02;71.48
14204;BME280;7185;51.854;6.622;2023-12-20T05:51:13;101100.69;;;10.82;71.78
14204;BME280;7185;51.854;6.622;2023-12-20T05:53:45;101101.00;;;10.55;72.58
14204;BME280;7185;51.854;6.622;2023-12-20T05:56:18;101102.09;;;11.14;71.17
14204;BME280;7185;51.854;6.622;2023-12-20T05:58:49;101106.56;;;11.06;70.94
14204;BME280;7185;51.854;6.622;2023-12-20T06:01:21;101111.16;;;10.89;71.83
14204;BME280;7185;51.854;6.622;2023-12-20T06:03:53;101103.03;;;11.07;71.27
14204;BME280;7185;51.854;6.622;2023-12-20T06:06:25;101112.59;;;11.11;71.12
14204;BME280;7185;51.854;6.622;2023-12-20T06:08:56;101109.19;;;11.03;71.68
14204;BME280;7185;51.854;6.622;2023-12-20T06:11:29;101112.84;;;10.90;71.57
14204;BME280;7185;51.854;6.622;2023-12-20T06:14:01;101116.88;;;11.19;71.28
14204;BME280;7185;51.854;6.622;2023-12-20T06:16:33;101111.00;;;11.01;71.10
14204;BME280;7185;51.854;6.622;2023-12-20T06:19:04;101112.59;;;11.11;71.27
14204;BME280;7185;51.854;6.622;2023-12-20T06:21:36;101107.75;;;11.51;70.16
14204;BME280;7185;51.854;6.622;2023-12-20T06:24:08;101115.94;;;11.26;70.60
14204;BME280;7185;51.854;6.622;2023-12-20T06:26:41;101116.31;;;10.95;71.72
14204;BME280;7185;51.854;6.622;2023-12-20T06:29:13;101120.34;;;11.24;70.73
14204;BME280;7185;51.854;6.622;2023-12-20T06:31:44;101111.66;;;11.19;71.06
14204;BME280;7185;51.854;6.622;2023-12-20T06:34:16;101118.00;;;11.02;71.11
14204;BME280;7185;51.854;6.622;2023-12-20T06:36:48;101108.47;;;11.60;69.73
14204;BME280;7185;51.854;6.622;2023-12-20T06:39:19;101119.22;;;11.43;70.00
14204;BME280;7185;51.854;6.622;2023-12-20T06:41:53;101108.13;;;11.23;71.21
14204;BME280;7185;51.854;6.622;2023-12-20T06:44:24;101114.84;;;10.71;72.16
14204;BME280;7185;51.854;6.622;2023-12-20T06:46:56;101093.88;;;11.39;71.24
14204;BME280;7185;51.854;6.622;2023-12-20T06:49:28;101095.13;;;11.10;71.30
14204;BME280;7185;51.854;6.622;2023-12-20T06:52:00;101092.22;;;11.34;71.42
14204;BME280;7185;51.854;6.622;2023-12-20T06:54:32;101092.00;;;11.47;70.44
14204;BME280;7185;51.854;6.622;2023-12-20T06:57:06;101101.16;;;11.20;71.19
14204;BME280;7185;51.854;6.622;2023-12-20T06:59:38;101097.47;;;11.32;70.74
14204;BME280;7185;51.854;6.622;2023-12-20T07:02:10;101087.47;;;11.60;69.85
14204;BME280;7185;51.854;6.622;2023-12-20T07:04:42;101089.38;;;11.47;70.31
14204;BME280;7185;51.854;6.622;2023-12-20T07:07:14;101094.59;;;11.49;70.40
14204;BME280;7185;51.854;6.622;2023-12-20T07:09:46;101098.28;;;11.36;70.77
14204;BME280;7185;51.854;6.622;2023-12-20T07:12:19;101095.59;;;11.43;70.58
14204;BME280;7185;51.854;6.622;2023-12-20T07:14:51;101084.88;;;11.57;70.16
14204;BME280;7185;51.854;6.622;2023-12-20T07:17:22;101089.25;;;11.57;70.10
14204;BME280;7185;51.854;6.622;2023-12-20T07:19:54;101093.28;;;11.19;71.19
14204;BME280;7185;51.854;6.622;2023-12-20T07:22:25;101088.75;;;11.28;71.22
14204;BME280;7185;51.854;6.622;2023-12-20T07:24:57;101088.00;;;11.22;71.74
14204;BME280;7185;51.854;6.622;2023-12-20T07:27:30;101093.22;;;11.23;70.80
14204;BME280;7185;51.854;6.622;2023-12-20T07:30:03;101091.16;;;11.47;70.67
14204;BME280;7185;51.854;6.622;2023-12-20T07:32:34;101099.78;;;11.57;70.35
14204;BME280;7185;51.854;6.622;2023-12-20T07:35:07;101099.13;;;11.39;70.56
14204;BME280;7185;51.854;6.622;2023-12-20T07:37:39;101097.47;;;11.32;70.71
14204;BME280;7185;51.854;6.622;2023-12-20T07:40:10;101088.38;;;11.58;70.24
14204;BME280;7185;51.854;6.622;2023-12-20T07:42:44;101106.03;;;11.46;70.58
14204;BME280;7185;51.854;6.622;2023-12-20T07:45:15;101096.09;;;11.69;69.76
14204;BME280;7185;51.854;6.622;2023-12-20T07:47:47;101099.22;;;11.33;70.57
14204;BME280;7185;51.854;6.622;2023-12-20T07:50:19;101092.66;;;11.63;70.22
14204;BME280;7185;51.854;6.622;2023-12-20T07:52:51;101086.22;;;11.24;70.87
14204;BME280;7185;51.854;6.622;2023-12-20T07:55:23;101091.91;;;11.54;70.22
14204;BME280;7185;51.854;6.622;2023-12-20T07:57:57;101079.84;;;11.43;70.15
14204;BME280;7185;51.854;6.622;2023-12-20T08:00:29;101089.53;;;11.38;70.88
14204;BME280;7185;51.854;6.622;2023-12-20T08:03:00;101095.81;;;11.25;71.07
14204;BME280;7185;51.854;6.622;2023-12-20T08:05:33;101085.66;;;11.64;70.15
14204;BME280;7185;51.854;6.622;2023-12-20T08:08:06;101082.31;;;11.54;70.26
14204;BME280;7185;51.854;6.622;2023-12-20T08:10:38;101084.16;;;11.46;70.71
14204;BME280;7185;51.854;6.622;2023-12-20T08:13:11;101093.25;;;11.83;69.60
14204;BME280;7185;51.854;6.622;2023-12-20T08:15:41;101100.78;;;11.46;70.09
14204;BME280;7185;51.854;6.622;2023-12-20T08:18:13;101099.13;;;11.39;70.55
14204;BME280;7185;51.854;6.622;2023-12-20T08:20:45;101102.81;;;11.26;70.82
14204;BME280;7185;51.854;6.622;2023-12-20T08:23:17;101111.56;;;11.25;70.82
14204;BME280;7185;51.854;6.622;2023-12-20T08:25:50;101104.63;;;11.21;71.23
14204;BME280;7185;51.854;6.622;2023-12-20T08:28:23;101113.09;;;11.44;70.23
14204;BME280;7185;51.854;6.622;2023-12-20T08:30:55;101100.63;;;11.59;69.82
14204;BME280;7185;51.854;6.622;2023-12-20T08:33:27;101108.91;;;11.28;70.77
14204;BME280;7185;51.854;6.622;2023-12-20T08:35:58;101107.94;;;11.35;70.00
14204;BME280;7185;51.854;6.622;2023-12-20T08:38:30;101106.38;;;11.22;70.91
14204;BME280;7185;51.854;6.622;2023-12-20T08:41:02;101100.34;;;11.13;71.11
14204;BME280;7185;51.854;6.622;2023-12-20T08:43:36;101099.97;;;11.41;70.37
14204;BME280;7185;51.854;6.622;2023-12-20T08:46:10;101092.94;;;11.45;70.31
14204;BME280;7185;51.854;6.622;2023-12-20T08:48:42;101102.19;;;11.72;69.38
14204;BME280;7185;51.854;6.622;2023-12-20T08:51:14;101094.59;;;11.49;70.14
14204;BME280;7185;51.854;6.622;2023-12-20T08:53:45;101086.81;;;11.44;70.04
14204;BME280;7185;51.854;6.622;2023-12-20T08:56:18;101086.91;;;11.38;70.17
14204;BME280;7185;51.854;6.622;2023-12-20T08:58:51;101076.06;;;11.60;69.71
14204;BME280;7185;51.854;6.622;2023-12-20T09:01:22;101077.59;;;11.12;71.10
14204;BME280;7185;51.854;6.622;2023-12-20T09:03:54;101078.53;;;11.71;69.17
14204;BME280;7185;51.854;6.622;2023-12-20T09:06:26;101072.81;;;11.44;70.33
14204;BME280;7185;51.854;6.622;2023-12-20T09:08:57;101085.41;;;11.19;70.34
14204;BME280;7185;51.854;6.622;2023-12-20T09:11:29;101082.50;;;11.39;70.09
14204;BME280;7185;51.854;6.622;2023-12-20T09:14:02;101077.41;;;11.87;68.94
14204;BME280;7185;51.854;6.622;2023-12-20T09:16:34;101077.38;;;11.89;68.62
14204;BME280;7185;51.854;6.622;2023-12-20T09:19:05;101074.03;;;11.79;69.24
14204;BME280;7185;51.854;6.622;2023-12-20T09:21:37;101063.34;;;11.34;70.65
14204;BME280;7185;51.854;6.622;2023-12-20T09:24:09;101062.78;;;11.72;69.49
14204;BME280;7185;51.854;6.622;2023-12-20T09:26:40;101068.28;;;11.54;70.01
14204;BME280;7185;51.854;6.622;2023-12-20T09:29:14;101068.72;;;11.84;69.37
14204;BME280;7185;51.854;6.622;2023-12-20T09:31:46;101065.59;;;11.58;70.49
14204;BME280;7185;51.854;6.622;2023-12-20T09:34:18;101066.88;;;11.89;69.69
14204;BME280;7185;51.854;6.622;2023-12-20T09:36:49;101072.09;;;11.92;69.81
14204;BME280;7185;51.854;6.622;2023-12-20T09:39:21;101079.41;;;11.71;70.12
14204;BME280;7185;51.854;6.622;2023-12-20T09:42:00;101079.09;;;11.34;71.34
14204;BME280;7185;51.854;6.622;2023-12-20T09:44:33;101095.69;;;11.34;71.68
14204;BME280;7185;51.854;6.622;2023-12-20T09:47:06;101081.66;;;11.38;71.74
14204;BME280;7185;51.854;6.622;2023-12-20T09:49:38;101083.22;;;11.50;72.00
14204;BME280;7185;51.854;6.622;2023-12-20T09:52:11;101078.34;;;11.24;72.36
14204;BME280;7185;51.854;6.622;2023-12-20T09:54:45;101079.84;;;11.42;71.88
14204;BME280;7185;51.854;6.622;2023-12-20T09:57:19;101082.34;;;11.51;71.86
14204;BME280;7185;51.854;6.622;2023-12-20T09:59:52;101080.28;;;11.72;71.31
14204;BME280;7185;51.854;6.622;2023-12-20T10:02:25;101081.50;;;11.47;71.67
14204;BME280;7185;51.854;6.622;2023-12-20T10:05:17;101090.78;;;11.72;71.89
14204;BME280;7185;51.854;6.622;2023-12-20T10:07:49;101096.34;;;11.50;72.04
14204;BME280;7185;51.854;6.622;2023-12-20T10:10:21;101087.41;;;11.63;72.13
14204;BME280;7185;51.854;6.622;2023-12-20T10:13:03;101088.91;;;11.80;70.92
14204;BME280;7185;51.854;6.622;2023-12-20T10:15:37;101091.50;;;11.82;71.50
14204;BME280;7185;51.854;6.622;2023-12-20T10:18:09;101077.97;;;11.52;72.29
14204;BME280;7185;51.854;6.622;2023-12-20T10:20:41;101078.53;;;11.71;71.83
14204;BME280;7185;51.854;6.622;2023-12-20T10:23:15;101068.34;;;11.51;71.90
14204;BME280;7185;51.854;6.622;2023-12-20T10:25:56;101072.50;;;11.66;71.85
14204;BME280;7185;51.854;6.622;2023-12-20T10:28:33;101080.28;;;11.73;71.98
14204;BME280;7185;51.854;6.622;2023-12-20T10:31:06;101071.03;;;12.05;71.32
14204;BME280;7185;51.854;6.622;2023-12-20T10:33:40;101070.91;;;11.55;72.77
14204;BME280;7185;51.854;6.622;2023-12-20T10:36:11;101066.13;;;11.82;72.09
14204;BME280;7185;51.854;6.622;2023-12-20T10:38:44;101073.84;;;11.93;72.05
14204;BME280;7185;51.854;6.622;2023-12-20T10:41:20;101053.22;;;12.21;71.20
14204;BME280;7185;51.854;6.622;2023-12-20T10:43:59;101074.00;;;11.80;71.99
14204;BME280;7185;51.854;6.622;2023-12-20T10:46:33;101081.75;;;11.90;71.85
14204;BME280;7185;51.854;6.622;2023-12-20T10:49:06;101072.50;;;11.66;72.65
14204;BME280;7185;51.854;6.622;2023-12-20T10:51:39;101066.22;;;11.74;72.36
14204;BME280;7185;51.854;6.622;2023-12-20T10:54:11;101061.22;;;11.59;72.74
14204;BME280;7185;51.854;6.622;2023-12-20T10:56:43;101068.16;;;11.63;72.70
14204;BME280;7185;51.854;6.622;2023-12-20T10:59:18;101067.34;;;11.59;72.71
14204;BME280;7185;51.854;6.622;2023-12-20T11:01:53;101069.19;;;12.10;70.74
14204;BME280;7185;51.854;6.622;2023-12-20T11:04:34;101061.16;;;12.20;70.65
14204;BME280;7185;51.854;6.622;2023-12-20T11:07:16;101059.31;;;11.69;72.30
14204;BME280;7185;51.854;6.622;2023-12-20T11:09:56;101050.56;;;12.23;70.84
14204;BME280;7185;51.854;6.622;2023-12-20T11:12:36;101060.59;;;12.51;70.06
14204;BME280;7185;51.854;6.622;2023-12-20T11:15:10;101060.19;;;12.24;70.71
14204;BME280;7185;51.854;6.622;2023-12-20T11:17:45;101053.47;;;12.06;71.18
14204;BME280;7185;51.854;6.622;2023-12-20T11:20:17;101049.44;;;12.38;69.73
14204;BME280;7185;51.854;6.622;2023-12-20T11:22:53;101057.09;;;12.00;71.11
14204;BME280;7185;51.854;6.622;2023-12-20T11:25:25;101035.28;;;12.45;70.19
14204;BME280;7185;51.854;6.622;2023-12-20T11:28:10;101034.91;;;12.17;70.49
14204;BME280;7185;51.854;6.622;2023-12-20T11:30:45;101036.91;;;12.02;71.13
14204;BME280;7185;51.854;6.622;2023-12-20T11:33:23;101040.13;;;12.20;71.02
14204;BME280;7185;51.854;6.622;2023-12-20T11:35:55;101027.47;;;12.40;70.15
14204;BME280;7185;51.854;6.622;2023-12-20T11:38:27;101031.50;;;12.58;70.18
14204;BME280;7185;51.854;6.622;2023-12-20T11:40:59;101028.47;;;12.33;70.63
14204;BME280;7185;51.854;6.622;2023-12-20T11:43:35;101015.69;;;12.15;71.23
14204;BME280;7185;51.854;6.622;2023-12-20T11:46:09;101015.03;;;12.49;70.13
14204;BME280;7185;51.854;6.622;2023-12-20T11:48:44;101020.47;;;12.39;70.87
14204;BME280;7185;51.854;6.622;2023-12-20T11:51:16;101005.44;;;12.90;69.16
14204;BME280;7185;51.854;6.622;2023-12-20T11:53:51;101004.06;;;13.13;68.58
14204;BME280;7185;51.854;6.622;2023-12-20T11:56:23;101007.66;;;12.66;69.54
14204;BME280;7185;51.854;6.622;2023-12-20T11:58:55;101012.31;;;12.53;70.05
14204;BME280;7185;51.854;6.622;2023-12-20T12:01:27;101000.78;;;12.59;69.97
14204;BME280;7185;51.854;6.622;2023-12-20T12:04:03;100992.22;;;12.51;69.92
14204;BME280;7185;51.854;6.622;2023-12-20T12:06:35;101005.09;;;12.19;70.55
14204;BME280;7185;51.854;6.622;2023-12-20T12:09:07;101014.06;;;12.54;69.81
14204;BME280;7185;51.854;6.622;2023-12-20T12:11:39;100998.50;;;12.86;69.11
14204;BME280;7185;51.854;6.622;2023-12-20T12:14:10;100995.59;;;12.56;69.64
14204;BME280;7185;51.854;6.622;2023-12-20T12:16:42;100990.53;;;12.47;69.83
14204;BME280;7185;51.854;6.622;2023-12-20T12:19:22;100989.50;;;12.54;70.00
14204;BME280;7185;51.854;6.622;2023-12-20T12:22:04;100980.13;;;12.40;69.79
14204;BME280;7185;51.854;6.622;2023-12-20T12:24:37;100988.59;;;12.55;69.76
14204;BME280;7185;51.854;6.622;2023-12-20T12:27:09;100984.56;;;12.81;69.13
14204;BME280;7185;51.854;6.622;2023-12-20T12:29:59;100974.44;;;12.62;69.33
14204;BME280;7185;51.854;6.622;2023-12-20T12:32:32;100978.47;;;12.79;68.67
14204;BME280;7185;51.854;6.622;2023-12-20T12:35:06;100977.50;;;12.40;70.10
14204;BME280;7185;51.854;6.622;2023-12-20T12:37:40;100975.81;;;12.80;68.50
14204;BME280;7185;51.854;6.622;2023-12-20T12:40:13;100972.75;;;13.00;68.65
14204;BME280;7185;51.854;6.622;2023-12-20T12:42:45;100969.56;;;12.84;68.70
14204;BME280;7185;51.854;6.622;2023-12-20T12:45:17;100967.06;;;13.19;68.04
14204;BME280;7185;51.854;6.622;2023-12-20T12:47:49;100965.91;;;12.91;68.12
14204;BME280;7185;51.854;6.622;2023-12-20T12:50:22;100950.63;;;13.07;68.23
14204;BME280;7185;51.854;6.622;2023-12-20T12:52:53;100955.84;;;12.70;68.78
14204;BME280;7185;51.854;6.622;2023-12-20T12:55:25;100944.56;;;12.65;69.21
14204;BME280;7185;51.854;6.622;2023-12-20T12:57:57;100944.50;;;12.68;69.20
14204;BME280;7185;51.854;6.622;2023-12-20T13:00:29;100929.75;;;13.00;68.92
14204;BME280;7185;51.854;6.622;2023-12-20T13:03:00;100933.38;;;12.96;68.43
14204;BME280;7185;51.854;6.622;2023-12-20T13:05:33;100942.53;;;12.78;68.37
14204;BME280;7185;51.854;6.622;2023-12-20T13:08:06;100941.16;;;13.00;68.43
14204;BME280;7185;51.854;6.622;2023-12-20T13:10:38;100941.81;;;12.71;68.32
14204;BME280;7185;51.854;6.622;2023-12-20T13:13:09;100938.75;;;13.29;67.88
14204;BME280;7185;51.854;6.622;2023-12-20T13:15:41;100940.53;;;12.89;68.51
14204;BME280;7185;51.854;6.622;2023-12-20T13:18:13;100939.13;;;12.72;69.17
14204;BME280;7185;51.854;6.622;2023-12-20T13:20:46;100927.66;;;12.77;69.10
14204;BME280;7185;51.854;6.622;2023-12-20T13:23:17;100916.47;;;12.65;69.63
14204;BME280;7185;51.854;6.622;2023-12-20T13:25:49;100909.13;;;12.81;69.02
14204;BME280;7185;51.854;6.622;2023-12-20T13:28:21;100916.22;;;12.78;68.82